sensor_id;sensor_type;location;lat;lon;timestamp;temperature;humidity
21616;DHT22;10970;48.714;9.584;2023-04-29T00:01:02;10.90;99.90
21616;DHT22;10970;48.714;9.584;2023-04-29T00:03:28;10.90;99.90
21616;DHT22;10970;48.714;9.584;2023-04-29T00:05:57;10.90;99.90
21616;DHT22;10970;48.714;9.584;2023-04-29T00:08:23;10.90;99.90
21616;DHT22;10970;48.714;9.584;2023-04-29T00:10:49;11.00;99.90
21616;DHT22;10970;48.714;9.584;2023-04-29T00:13:15;11.00;99.90
21616;DHT22;10970;48.714;9.584;2023-04-29T00:15:41;11.00;99.90
21616;DHT22;10970;48.714;9.584;2023-04-29T00:18:07;11.10;99.90
21616;DHT22;10970;48.714;9.584;2023-04-29T00:20:34;11.10;99.90
21616;DHT22;10970;48.714;9.584;2023-04-29T00:22:59;11.10;99.90
21616;DHT22;10970;48.714;9.584;2023-04-29T00:25:25;11.00;99.90
21616;DHT22;10970;48.714;9.584;2023-04-29T00:27:51;10.90;99.90
21616;DHT22;10970;48.714;9.584;2023-04-29T00:30:17;10.80;99.90
21616;DHT22;10970;48.714;9.584;2023-04-29T00:32:42;10.70;99.90
21616;DHT22;10970;48.714;9.584;2023-04-29T00:35:09;10.70;99.90
21616;DHT22;10970;48.714;9.584;2023-04-29T00:37:35;10.60;99.90
21616;DHT22;10970;48.714;9.584;2023-04-29T00:40:01;10.60;99.90
21616;DHT22;10970;48.714;9.584;2023-04-29T00:42:28;10.60;99.90
21616;DHT22;10970;48.714;9.584;2023-04-29T00:44:53;10.50;99.90
21616;DHT22;10970;48.714;9.584;2023-04-29T00:47:19;10.50;99.90
21616;DHT22;10970;48.714;9.584;2023-04-29T00:49:44;10.50;99.90
21616;DHT22;10970;48.714;9.584;2023-04-29T00:52:12;10.40;99.90
21616;DHT22;10970;48.714;9.584;2023-04-29T00:54:39;10.40;99.90
21616;DHT22;10970;48.714;9.584;2023-04-29T00:57:05;10.40;99.90
21616;DHT22;10970;48.714;9.584;2023-04-29T00:59:32;10.50;99.90
21616;DHT22;10970;48.714;9.584;2023-04-29T01:02:02;10.60;99.90
21616;DHT22;10970;48.714;9.584;2023-04-29T01:04:31;10.60;99.90
21616;DHT22;10970;48.714;9.584;2023-04-29T01:07:26;10.60;99.90
21616;DHT22;10970;48.714;9.584;2023-04-29T01:15:24;10.30;99.90
21616;DHT22;10970;48.714;9.584;2023-04-29T01:18:05;10.30;99.90
21616;DHT22;10970;48.714;9.584;2023-04-29T01:20:32;10.20;99.90
21616;DHT22;10970;48.714;9.584;2023-04-29T01:22:58;10.30;99.90
21616;DHT22;10970;48.714;9.584;2023-04-29T01:25:24;10.30;99.90
21616;DHT22;10970;48.714;9.584;2023-04-29T01:39:36;10.60;99.90
21616;DHT22;10970;48.714;9.584;2023-04-29T01:44:59;10.80;99.90
21616;DHT22;10970;48.714;9.584;2023-04-29T01:47:26;10.90;99.90
21616;DHT22;10970;48.714;9.584;2023-04-29T01:49:54;10.90;99.90
21616;DHT22;10970;48.714;9.584;2023-04-29T01:52:19;10.80;99.90
21616;DHT22;10970;48.714;9.584;2023-04-29T01:54:45;10.70;99.90
21616;DHT22;10970;48.714;9.584;2023-04-29T01:57:11;10.70;99.90
21616;DHT22;10970;48.714;9.584;2023-04-29T01:59:37;10.70;99.90
21616;DHT22;10970;48.714;9.584;2023-04-29T02:02:02;10.70;99.90
21616;DHT22;10970;48.714;9.584;2023-04-29T02:04:28;10.60;99.90
21616;DHT22;10970;48.714;9.584;2023-04-29T02:06:58;10.50;99.90
21616;DHT22;10970;48.714;9.584;2023-04-29T02:09:23;10.60;99.90
21616;DHT22;10970;48.714;9.584;2023-04-29T02:11:49;10.60;99.90
21616;DHT22;10970;48.714;9.584;2023-04-29T02:14:15;10.60;99.90
21616;DHT22;10970;48.714;9.584;2023-04-29T02:16:43;10.60;99.90
21616;DHT22;10970;48.714;9.584;2023-04-29T02:19:09;10.60;99.90
21616;DHT22;10970;48.714;9.584;2023-04-29T02:21:35;10.50;99.90
21616;DHT22;10970;48.714;9.584;2023-04-29T02:24:01;10.50;99.90
21616;DHT22;10970;48.714;9.584;2023-04-29T02:26:27;10.50;99.90
21616;DHT22;10970;48.714;9.584;2023-04-29T02:28:52;10.50;99.90
21616;DHT22;10970;48.714;9.584;2023-04-29T02:31:19;10.50;99.90
21616;DHT22;10970;48.714;9.584;2023-04-29T02:33:44;10.50;99.90
21616;DHT22;10970;48.714;9.584;2023-04-29T02:36:10;10.50;99.90
21616;DHT22;10970;48.714;9.584;2023-04-29T02:38:36;10.50;99.90
21616;DHT22;10970;48.714;9.584;2023-04-29T02:41:02;10.50;99.90
21616;DHT22;10970;48.714;9.584;2023-04-29T02:43:27;10.50;99.90
21616;DHT22;10970;48.714;9.584;2023-04-29T02:45:55;10.50;99.90
21616;DHT22;10970;48.714;9.584;2023-04-29T02:48:21;10.50;99.90
21616;DHT22;10970;48.714;9.584;2023-04-29T02:50:47;10.50;99.90
21616;DHT22;10970;48.714;9.584;2023-04-29T02:53:12;10.50;99.90
21616;DHT22;10970;48.714;9.584;2023-04-29T02:55:38;10.50;99.90
21616;DHT22;10970;48.714;9.584;2023-04-29T02:58:04;10.50;99.90
21616;DHT22;10970;48.714;9.584;2023-04-29T03:00:29;10.50;99.90
21616;DHT22;10970;48.714;9.584;2023-04-29T03:02:58;10.50;99.90
21616;DHT22;10970;48.714;9.584;2023-04-29T03:05:24;10.50;99.90
21616;DHT22;10970;48.714;9.584;2023-04-29T03:07:49;10.50;99.90
21616;DHT22;10970;48.714;9.584;2023-04-29T03:10:15;10.50;99.90
21616;DHT22;10970;48.714;9.584;2023-04-29T03:12:42;10.50;99.90
21616;DHT22;10970;48.714;9.584;2023-04-29T03:15:08;10.60;99.90
21616;DHT22;10970;48.714;9.584;2023-04-29T03:17:35;10.60;99.90
21616;DHT22;10970;48.714;9.584;2023-04-29T03:20:01;10.60;99.90
21616;DHT22;10970;48.714;9.584;2023-04-29T03:22:26;10.70;99.90
21616;DHT22;10970;48.714;9.584;2023-04-29T03:24:52;10.70;99.90
21616;DHT22;10970;48.714;9.584;2023-04-29T03:27:18;10.70;99.90
21616;DHT22;10970;48.714;9.584;2023-04-29T03:29:44;10.80;99.90
21616;DHT22;10970;48.714;9.584;2023-04-29T03:32:09;10.70;99.90
21616;DHT22;10970;48.714;9.584;2023-04-29T03:34:35;10.70;99.90
21616;DHT22;10970;48.714;9.584;2023-04-29T03:37:01;10.70;99.90
21616;DHT22;10970;48.714;9.584;2023-04-29T03:39:27;10.70;99.90
21616;DHT22;10970;48.714;9.584;2023-04-29T03:41:57;10.70;99.90
21616;DHT22;10970;48.714;9.584;2023-04-29T03:44:22;10.70;99.90
21616;DHT22;10970;48.714;9.584;2023-04-29T03:46:48;10.60;99.90
21616;DHT22;10970;48.714;9.584;2023-04-29T03:49:13;10.70;99.90
21616;DHT22;10970;48.714;9.584;2023-04-29T03:51:40;10.60;99.90
21616;DHT22;10970;48.714;9.584;2023-04-29T03:54:06;10.70;99.90
21616;DHT22;10970;48.714;9.584;2023-04-29T03:56:32;10.60;99.90
21616;DHT22;10970;48.714;9.584;2023-04-29T03:58:58;10.60;99.90
21616;DHT22;10970;48.714;9.584;2023-04-29T04:01:23;10.70;99.90
21616;DHT22;10970;48.714;9.584;2023-04-29T04:03:50;10.60;99.90
21616;DHT22;10970;48.714;9.584;2023-04-29T04:06:16;10.70;99.90
21616;DHT22;10970;48.714;9.584;2023-04-29T04:08:42;10.70;99.90
21616;DHT22;10970;48.714;9.584;2023-04-29T04:11:07;10.70;99.90
21616;DHT22;10970;48.714;9.584;2023-04-29T04:13:34;10.70;99.90
21616;DHT22;10970;48.714;9.584;2023-04-29T04:16:00;10.60;99.90
21616;DHT22;10970;48.714;9.584;2023-04-29T04:18:26;10.60;99.90
21616;DHT22;10970;48.714;9.584;2023-04-29T04:20:51;10.60;99.90
21616;DHT22;10970;48.714;9.584;2023-04-29T04:23:17;10.60;99.90
21616;DHT22;10970;48.714;9.584;2023-04-29T04:25:49;10.60;99.90
21616;DHT22;10970;48.714;9.584;2023-04-29T04:28:14;10.70;99.90
21616;DHT22;10970;48.714;9.584;2023-04-29T04:30:40;10.70;99.90
21616;DHT22;10970;48.714;9.584;2023-04-29T04:33:07;10.70;99.90
21616;DHT22;10970;48.714;9.584;2023-04-29T04:35:32;10.70;99.90
21616;DHT22;10970;48.714;9.584;2023-04-29T04:37:58;10.80;99.90
21616;DHT22;10970;48.714;9.584;2023-04-29T04:40:24;10.80;99.90
21616;DHT22;10970;48.714;9.584;2023-04-29T04:42:49;10.80;99.90
21616;DHT22;10970;48.714;9.584;2023-04-29T04:45:15;10.80;99.90
21616;DHT22;10970;48.714;9.584;2023-04-29T04:47:41;10.90;99.90
21616;DHT22;10970;48.714;9.584;2023-04-29T04:50:07;11.00;99.90
21616;DHT22;10970;48.714;9.584;2023-04-29T04:52:33;11.00;99.90
21616;DHT22;10970;48.714;9.584;2023-04-29T04:54:59;11.10;99.90
21616;DHT22;10970;48.714;9.584;2023-04-29T04:57:24;11.00;99.90
21616;DHT22;10970;48.714;9.584;2023-04-29T04:59:50;11.00;99.90
21616;DHT22;10970;48.714;9.584;2023-04-29T05:02:16;10.90;99.90
21616;DHT22;10970;48.714;9.584;2023-04-29T05:04:41;11.00;99.90
21616;DHT22;10970;48.714;9.584;2023-04-29T05:07:07;11.10;99.90
21616;DHT22;10970;48.714;9.584;2023-04-29T05:09:33;11.20;99.90
21616;DHT22;10970;48.714;9.584;2023-04-29T05:11:59;11.20;99.90
21616;DHT22;10970;48.714;9.584;2023-04-29T05:14:25;11.30;99.90
21616;DHT22;10970;48.714;9.584;2023-04-29T05:16:51;11.40;99.90
21616;DHT22;10970;48.714;9.584;2023-04-29T05:19:18;11.50;99.90
21616;DHT22;10970;48.714;9.584;2023-04-29T05:21:43;11.60;99.90
21616;DHT22;10970;48.714;9.584;2023-04-29T05:24:09;11.60;99.90
21616;DHT22;10970;48.714;9.584;2023-04-29T05:26:35;11.70;99.90
21616;DHT22;10970;48.714;9.584;2023-04-29T05:29:01;11.80;99.90
21616;DHT22;10970;48.714;9.584;2023-04-29T05:31:26;11.90;99.90
21616;DHT22;10970;48.714;9.584;2023-04-29T05:33:52;11.80;99.90
21616;DHT22;10970;48.714;9.584;2023-04-29T05:36:18;11.80;99.90
21616;DHT22;10970;48.714;9.584;2023-04-29T05:38:44;11.80;99.90
21616;DHT22;10970;48.714;9.584;2023-04-29T05:41:10;11.80;99.90
21616;DHT22;10970;48.714;9.584;2023-04-29T05:43:36;11.80;99.90
21616;DHT22;10970;48.714;9.584;2023-04-29T05:46:02;11.70;99.90
21616;DHT22;10970;48.714;9.584;2023-04-29T05:48:27;11.80;99.90
21616;DHT22;10970;48.714;9.584;2023-04-29T05:50:54;11.70;99.90
21616;DHT22;10970;48.714;9.584;2023-04-29T05:53:20;11.80;99.90
21616;DHT22;10970;48.714;9.584;2023-04-29T05:55:46;11.90;99.90
21616;DHT22;10970;48.714;9.584;2023-04-29T05:58:12;11.90;99.90
21616;DHT22;10970;48.714;9.584;2023-04-29T06:00:38;11.90;99.90
21616;DHT22;10970;48.714;9.584;2023-04-29T06:03:03;11.90;99.90
21616;DHT22;10970;48.714;9.584;2023-04-29T06:05:29;11.90;99.90
21616;DHT22;10970;48.714;9.584;2023-04-29T06:07:55;12.00;99.90
21616;DHT22;10970;48.714;9.584;2023-04-29T06:10:21;12.10;99.90
21616;DHT22;10970;48.714;9.584;2023-04-29T06:12:46;12.20;99.90
21616;DHT22;10970;48.714;9.584;2023-04-29T06:15:15;12.50;99.90
21616;DHT22;10970;48.714;9.584;2023-04-29T06:17:40;12.60;99.90
21616;DHT22;10970;48.714;9.584;2023-04-29T06:20:07;12.60;99.90
21616;DHT22;10970;48.714;9.584;2023-04-29T06:22:33;12.70;99.90
21616;DHT22;10970;48.714;9.584;2023-04-29T06:24:59;12.70;99.90
21616;DHT22;10970;48.714;9.584;2023-04-29T06:27:24;12.90;99.90
21616;DHT22;10970;48.714;9.584;2023-04-29T06:29:50;13.20;99.90
21616;DHT22;10970;48.714;9.584;2023-04-29T06:32:16;13.40;99.90
21616;DHT22;10970;48.714;9.584;2023-04-29T06:34:41;13.50;99.90
21616;DHT22;10970;48.714;9.584;2023-04-29T06:37:07;13.50;99.90
21616;DHT22;10970;48.714;9.584;2023-04-29T06:39:33;13.60;99.90
21616;DHT22;10970;48.714;9.584;2023-04-29T06:41:59;13.50;99.90
21616;DHT22;10970;48.714;9.584;2023-04-29T06:44:24;13.60;99.90
21616;DHT22;10970;48.714;9.584;2023-04-29T06:46:50;13.80;99.90
21616;DHT22;10970;48.714;9.584;2023-04-29T06:49:16;13.80;99.90
21616;DHT22;10970;48.714;9.584;2023-04-29T06:51:42;13.90;99.90
21616;DHT22;10970;48.714;9.584;2023-04-29T06:54:07;14.00;99.90
21616;DHT22;10970;48.714;9.584;2023-04-29T06:56:33;14.10;99.90
21616;DHT22;10970;48.714;9.584;2023-04-29T06:58:59;14.30;99.90
21616;DHT22;10970;48.714;9.584;2023-04-29T07:01:24;14.20;99.90
21616;DHT22;10970;48.714;9.584;2023-04-29T07:03:50;14.20;99.90
21616;DHT22;10970;48.714;9.584;2023-04-29T07:06:16;14.10;99.90
21616;DHT22;10970;48.714;9.584;2023-04-29T07:08:42;14.00;99.90
21616;DHT22;10970;48.714;9.584;2023-04-29T07:11:08;14.30;99.90
21616;DHT22;10970;48.714;9.584;2023-04-29T07:13:33;14.90;99.90
21616;DHT22;10970;48.714;9.584;2023-04-29T07:15:59;15.30;99.90
21616;DHT22;10970;48.714;9.584;2023-04-29T07:18:25;15.70;99.90
21616;DHT22;10970;48.714;9.584;2023-04-29T07:20:50;16.40;99.90
21616;DHT22;10970;48.714;9.584;2023-04-29T07:23:17;16.30;99.90
21616;DHT22;10970;48.714;9.584;2023-04-29T07:25:42;16.00;99.90
21616;DHT22;10970;48.714;9.584;2023-04-29T07:28:08;15.70;99.90
21616;DHT22;10970;48.714;9.584;2023-04-29T07:30:34;15.40;99.90
21616;DHT22;10970;48.714;9.584;2023-04-29T07:32:59;15.10;99.90
21616;DHT22;10970;48.714;9.584;2023-04-29T07:35:26;15.00;99.90
21616;DHT22;10970;48.714;9.584;2023-04-29T07:37:52;15.10;99.90
21616;DHT22;10970;48.714;9.584;2023-04-29T07:40:17;15.10;99.90
21616;DHT22;10970;48.714;9.584;2023-04-29T07:42:43;15.30;99.90
21616;DHT22;10970;48.714;9.584;2023-04-29T07:45:09;15.40;99.90
21616;DHT22;10970;48.714;9.584;2023-04-29T07:47:35;15.70;99.90
21616;DHT22;10970;48.714;9.584;2023-04-29T07:50:01;15.70;99.90
21616;DHT22;10970;48.714;9.584;2023-04-29T07:52:27;15.60;99.90
21616;DHT22;10970;48.714;9.584;2023-04-29T07:54:53;15.70;99.90
21616;DHT22;10970;48.714;9.584;2023-04-29T07:57:20;16.00;99.90
21616;DHT22;10970;48.714;9.584;2023-04-29T07:59:51;16.20;99.90
21616;DHT22;10970;48.714;9.584;2023-04-29T08:02:16;16.00;99.90
21616;DHT22;10970;48.714;9.584;2023-04-29T08:04:42;16.30;99.90
21616;DHT22;10970;48.714;9.584;2023-04-29T08:07:08;16.30;99.90
21616;DHT22;10970;48.714;9.584;2023-04-29T08:09:33;16.30;99.90
21616;DHT22;10970;48.714;9.584;2023-04-29T08:11:59;16.00;99.90
21616;DHT22;10970;48.714;9.584;2023-04-29T08:14:26;15.70;99.90
21616;DHT22;10970;48.714;9.584;2023-04-29T08:16:52;15.40;99.90
21616;DHT22;10970;48.714;9.584;2023-04-29T08:19:19;15.30;99.90
21616;DHT22;10970;48.714;9.584;2023-04-29T08:21:46;15.30;99.90
21616;DHT22;10970;48.714;9.584;2023-04-29T08:24:11;15.30;99.90
21616;DHT22;10970;48.714;9.584;2023-04-29T08:26:39;15.40;99.90
21616;DHT22;10970;48.714;9.584;2023-04-29T08:29:05;15.40;99.90
21616;DHT22;10970;48.714;9.584;2023-04-29T08:31:31;15.60;99.90
21616;DHT22;10970;48.714;9.584;2023-04-29T08:33:56;15.70;99.90
21616;DHT22;10970;48.714;9.584;2023-04-29T08:36:23;15.80;99.90
21616;DHT22;10970;48.714;9.584;2023-04-29T08:38:48;15.90;99.90
21616;DHT22;10970;48.714;9.584;2023-04-29T08:41:17;15.70;99.90
21616;DHT22;10970;48.714;9.584;2023-04-29T08:43:43;15.70;99.90
21616;DHT22;10970;48.714;9.584;2023-04-29T08:46:09;15.70;99.90
21616;DHT22;10970;48.714;9.584;2023-04-29T08:48:36;15.70;99.90
21616;DHT22;10970;48.714;9.584;2023-04-29T08:51:02;15.70;99.90
21616;DHT22;10970;48.714;9.584;2023-04-29T08:53:28;15.70;99.90
21616;DHT22;10970;48.714;9.584;2023-04-29T08:55:54;15.80;99.90
21616;DHT22;10970;48.714;9.584;2023-04-29T08:58:23;15.90;99.90
21616;DHT22;10970;48.714;9.584;2023-04-29T09:00:49;16.00;99.90
21616;DHT22;10970;48.714;9.584;2023-04-29T09:05:42;16.30;99.90
21616;DHT22;10970;48.714;9.584;2023-04-29T09:08:10;16.20;99.90
21616;DHT22;10970;48.714;9.584;2023-04-29T09:10:38;16.10;99.90
21616;DHT22;10970;48.714;9.584;2023-04-29T09:13:04;15.90;99.90
21616;DHT22;10970;48.714;9.584;2023-04-29T09:15:35;15.90;99.90
21616;DHT22;10970;48.714;9.584;2023-04-29T09:18:01;15.90;99.90
21616;DHT22;10970;48.714;9.584;2023-04-29T09:20:27;15.80;99.90
21616;DHT22;10970;48.714;9.584;2023-04-29T09:25:21;15.80;99.90
21616;DHT22;10970;48.714;9.584;2023-04-29T09:27:46;15.80;99.90
21616;DHT22;10970;48.714;9.584;2023-04-29T09:30:12;15.70;99.90
21616;DHT22;10970;48.714;9.584;2023-04-29T09:32:41;15.60;99.90
21616;DHT22;10970;48.714;9.584;2023-04-29T09:35:24;15.60;99.90
21616;DHT22;10970;48.714;9.584;2023-04-29T09:37:50;15.70;99.90
21616;DHT22;10970;48.714;9.584;2023-04-29T09:43:00;15.80;99.90
21616;DHT22;10970;48.714;9.584;2023-04-29T09:48:03;16.10;99.90
21616;DHT22;10970;48.714;9.584;2023-04-29T09:50:29;16.20;99.90
21616;DHT22;10970;48.714;9.584;2023-04-29T09:52:55;16.30;99.90
21616;DHT22;10970;48.714;9.584;2023-04-29T09:55:21;16.20;99.90
21616;DHT22;10970;48.714;9.584;2023-04-29T09:57:47;16.10;99.90
21616;DHT22;10970;48.714;9.584;2023-04-29T10:00:13;16.30;99.90
21616;DHT22;10970;48.714;9.584;2023-04-29T10:02:45;16.30;99.90
21616;DHT22;10970;48.714;9.584;2023-04-29T10:05:20;16.40;99.90
21616;DHT22;10970;48.714;9.584;2023-04-29T10:07:47;16.40;99.90
21616;DHT22;10970;48.714;9.584;2023-04-29T10:10:14;16.20;99.90
21616;DHT22;10970;48.714;9.584;2023-04-29T10:12:42;16.20;99.90
21616;DHT22;10970;48.714;9.584;2023-04-29T10:17:53;16.40;99.90
21616;DHT22;10970;48.714;9.584;2023-04-29T10:20:23;16.40;99.90
21616;DHT22;10970;48.714;9.584;2023-04-29T10:22:51;16.40;99.90
21616;DHT22;10970;48.714;9.584;2023-04-29T10:25:18;16.30;99.90
21616;DHT22;10970;48.714;9.584;2023-04-29T10:27:45;16.40;99.90
21616;DHT22;10970;48.714;9.584;2023-04-29T10:30:16;16.50;99.90
21616;DHT22;10970;48.714;9.584;2023-04-29T10:32:43;16.90;99.90
21616;DHT22;10970;48.714;9.584;2023-04-29T10:35:11;17.10;99.90
21616;DHT22;10970;48.714;9.584;2023-04-29T10:37:38;17.50;99.90
21616;DHT22;10970;48.714;9.584;2023-04-29T10:40:06;17.80;99.90
21616;DHT22;10970;48.714;9.584;2023-04-29T10:45:20;17.60;99.90
21616;DHT22;10970;48.714;9.584;2023-04-29T10:50:28;17.70;99.90
21616;DHT22;10970;48.714;9.584;2023-04-29T10:52:57;17.80;99.90
21616;DHT22;10970;48.714;9.584;2023-04-29T10:55:23;18.00;99.90
21616;DHT22;10970;48.714;9.584;2023-04-29T10:57:55;18.10;99.90
21616;DHT22;10970;48.714;9.584;2023-04-29T11:00:25;18.40;99.90
21616;DHT22;10970;48.714;9.584;2023-04-29T11:02:55;18.40;99.90
21616;DHT22;10970;48.714;9.584;2023-04-29T11:05:36;18.30;99.90
21616;DHT22;10970;48.714;9.584;2023-04-29T11:10:39;17.50;99.90
21616;DHT22;10970;48.714;9.584;2023-04-29T11:13:26;17.50;99.90
21616;DHT22;10970;48.714;9.584;2023-04-29T11:15:53;17.20;99.90
21616;DHT22;10970;48.714;9.584;2023-04-29T11:18:18;17.20;99.90
21616;DHT22;10970;48.714;9.584;2023-04-29T11:23:28;17.30;99.90
21616;DHT22;10970;48.714;9.584;2023-04-29T11:25:54;17.30;99.90
21616;DHT22;10970;48.714;9.584;2023-04-29T11:28:27;17.60;99.90
21616;DHT22;10970;48.714;9.584;2023-04-29T11:30:56;17.40;99.90
21616;DHT22;10970;48.714;9.584;2023-04-29T11:33:25;17.30;99.90
21616;DHT22;10970;48.714;9.584;2023-04-29T11:35:54;17.20;99.90
21616;DHT22;10970;48.714;9.584;2023-04-29T11:38:28;17.10;99.90
21616;DHT22;10970;48.714;9.584;2023-04-29T11:40:55;17.20;99.90
21616;DHT22;10970;48.714;9.584;2023-04-29T11:43:22;17.20;99.90
21616;DHT22;10970;48.714;9.584;2023-04-29T11:45:49;17.20;99.90
21616;DHT22;10970;48.714;9.584;2023-04-29T11:48:25;16.90;99.90
21616;DHT22;10970;48.714;9.584;2023-04-29T11:50:58;16.80;99.90
21616;DHT22;10970;48.714;9.584;2023-04-29T11:53:24;16.90;99.90
21616;DHT22;10970;48.714;9.584;2023-04-29T11:55:54;16.90;99.90
21616;DHT22;10970;48.714;9.584;2023-04-29T11:58:21;17.00;99.90
21616;DHT22;10970;48.714;9.584;2023-04-29T12:00:47;17.00;99.90
21616;DHT22;10970;48.714;9.584;2023-04-29T12:03:17;17.20;99.90
21616;DHT22;10970;48.714;9.584;2023-04-29T12:05:51;17.30;99.90
21616;DHT22;10970;48.714;9.584;2023-04-29T12:08:25;17.10;99.90
21616;DHT22;10970;48.714;9.584;2023-04-29T12:10:52;17.20;99.90
21616;DHT22;10970;48.714;9.584;2023-04-29T12:13:19;17.50;99.90
21616;DHT22;10970;48.714;9.584;2023-04-29T12:15:46;17.50;99.90
21616;DHT22;10970;48.714;9.584;2023-04-29T12:18:13;17.30;99.90
21616;DHT22;10970;48.714;9.584;2023-04-29T12:20:39;17.30;99.90
21616;DHT22;10970;48.714;9.584;2023-04-29T12:23:16;17.30;99.90
21616;DHT22;10970;48.714;9.584;2023-04-29T12:25:55;17.50;99.90
21616;DHT22;10970;48.714;9.584;2023-04-29T12:28:21;17.50;99.90
21616;DHT22;10970;48.714;9.584;2023-04-29T12:30:47;17.50;99.90
21616;DHT22;10970;48.714;9.584;2023-04-29T12:35:50;17.50;99.90
21616;DHT22;10970;48.714;9.584;2023-04-29T12:38:26;17.40;99.90
21616;DHT22;10970;48.714;9.584;2023-04-29T12:40:59;17.60;99.90
21616;DHT22;10970;48.714;9.584;2023-04-29T12:43:30;17.40;99.90
21616;DHT22;10970;48.714;9.584;2023-04-29T12:46:03;17.00;99.90
21616;DHT22;10970;48.714;9.584;2023-04-29T12:48:33;16.90;99.90
21616;DHT22;10970;48.714;9.584;2023-04-29T12:51:00;17.00;99.90
21616;DHT22;10970;48.714;9.584;2023-04-29T12:53:27;17.20;99.90
21616;DHT22;10970;48.714;9.584;2023-04-29T12:55:53;17.10;99.90
21616;DHT22;10970;48.714;9.584;2023-04-29T12:58:19;17.00;99.90
21616;DHT22;10970;48.714;9.584;2023-04-29T13:00:45;17.10;99.90
21616;DHT22;10970;48.714;9.584;2023-04-29T13:03:11;16.90;99.90
21616;DHT22;10970;48.714;9.584;2023-04-29T13:05:36;16.90;99.90
21616;DHT22;10970;48.714;9.584;2023-04-29T13:08:02;17.00;99.90
21616;DHT22;10970;48.714;9.584;2023-04-29T13:10:31;17.10;99.90
21616;DHT22;10970;48.714;9.584;2023-04-29T13:12:57;17.10;99.90
21616;DHT22;10970;48.714;9.584;2023-04-29T13:15:23;17.20;99.90
21616;DHT22;10970;48.714;9.584;2023-04-29T13:17:49;17.30;99.90
21616;DHT22;10970;48.714;9.584;2023-04-29T13:20:14;17.10;99.90
21616;DHT22;10970;48.714;9.584;2023-04-29T13:22:40;17.20;99.90
21616;DHT22;10970;48.714;9.584;2023-04-29T13:25:08;17.00;99.90
21616;DHT22;10970;48.714;9.584;2023-04-29T13:27:34;17.00;99.90
21616;DHT22;10970;48.714;9.584;2023-04-29T13:30:00;17.10;99.90
21616;DHT22;10970;48.714;9.584;2023-04-29T13:32:26;17.00;99.90
21616;DHT22;10970;48.714;9.584;2023-04-29T13:34:52;17.00;99.90
21616;DHT22;10970;48.714;9.584;2023-04-29T13:37:18;16.90;99.90
21616;DHT22;10970;48.714;9.584;2023-04-29T13:39:44;16.80;99.90
21616;DHT22;10970;48.714;9.584;2023-04-29T13:42:10;16.80;99.90
21616;DHT22;10970;48.714;9.584;2023-04-29T13:44:36;16.70;99.90
21616;DHT22;10970;48.714;9.584;2023-04-29T13:47:02;16.70;99.90
21616;DHT22;10970;48.714;9.584;2023-04-29T13:49:28;16.80;99.90
21616;DHT22;10970;48.714;9.584;2023-04-29T13:51:54;16.80;99.90
21616;DHT22;10970;48.714;9.584;2023-04-29T13:54:20;16.90;99.90
21616;DHT22;10970;48.714;9.584;2023-04-29T13:56:48;16.90;99.90
21616;DHT22;10970;48.714;9.584;2023-04-29T13:59:14;16.90;99.90
21616;DHT22;10970;48.714;9.584;2023-04-29T14:01:40;17.00;99.90
21616;DHT22;10970;48.714;9.584;2023-04-29T14:04:06;17.00;99.90
21616;DHT22;10970;48.714;9.584;2023-04-29T14:06:32;16.90;99.90
21616;DHT22;10970;48.714;9.584;2023-04-29T14:08:59;16.80;99.90
21616;DHT22;10970;48.714;9.584;2023-04-29T14:11:24;16.70;99.90
21616;DHT22;10970;48.714;9.584;2023-04-29T14:13:50;16.70;99.90
21616;DHT22;10970;48.714;9.584;2023-04-29T14:16:16;16.80;99.90
21616;DHT22;10970;48.714;9.584;2023-04-29T14:18:42;16.80;99.90
21616;DHT22;10970;48.714;9.584;2023-04-29T14:21:07;16.90;99.90
21616;DHT22;10970;48.714;9.584;2023-04-29T14:23:33;16.80;99.90
21616;DHT22;10970;48.714;9.584;2023-04-29T14:25:59;16.80;99.90
21616;DHT22;10970;48.714;9.584;2023-04-29T14:28:25;16.70;99.90
21616;DHT22;10970;48.714;9.584;2023-04-29T14:30:50;16.80;99.90
21616;DHT22;10970;48.714;9.584;2023-04-29T14:33:16;16.80;99.90
21616;DHT22;10970;48.714;9.584;2023-04-29T14:35:42;16.70;99.90
21616;DHT22;10970;48.714;9.584;2023-04-29T14:38:07;16.80;99.90
21616;DHT22;10970;48.714;9.584;2023-04-29T14:40:33;16.90;99.90
21616;DHT22;10970;48.714;9.584;2023-04-29T14:42:59;16.90;99.90
21616;DHT22;10970;48.714;9.584;2023-04-29T14:45:24;16.60;99.90
21616;DHT22;10970;48.714;9.584;2023-04-29T14:47:50;16.40;99.90
21616;DHT22;10970;48.714;9.584;2023-04-29T14:50:16;16.20;99.90
21616;DHT22;10970;48.714;9.584;2023-04-29T14:52:42;16.10;99.90
21616;DHT22;10970;48.714;9.584;2023-04-29T14:55:07;16.20;99.90
21616;DHT22;10970;48.714;9.584;2023-04-29T14:57:33;16.30;99.90
21616;DHT22;10970;48.714;9.584;2023-04-29T14:59:59;16.10;99.90
21616;DHT22;10970;48.714;9.584;2023-04-29T15:02:25;16.20;99.90
21616;DHT22;10970;48.714;9.584;2023-04-29T15:04:51;16.30;99.90
21616;DHT22;10970;48.714;9.584;2023-04-29T15:07:17;16.30;99.90
21616;DHT22;10970;48.714;9.584;2023-04-29T15:09:43;16.30;99.90
21616;DHT22;10970;48.714;9.584;2023-04-29T15:12:10;16.30;99.90
21616;DHT22;10970;48.714;9.584;2023-04-29T15:14:35;16.40;99.90
21616;DHT22;10970;48.714;9.584;2023-04-29T15:17:01;16.40;99.90
21616;DHT22;10970;48.714;9.584;2023-04-29T15:19:27;16.50;99.90
21616;DHT22;10970;48.714;9.584;2023-04-29T15:21:52;16.30;99.90
21616;DHT22;10970;48.714;9.584;2023-04-29T15:24:18;16.30;99.90
21616;DHT22;10970;48.714;9.584;2023-04-29T15:26:44;16.30;99.90
21616;DHT22;10970;48.714;9.584;2023-04-29T15:29:11;16.20;99.90
21616;DHT22;10970;48.714;9.584;2023-04-29T15:31:37;16.20;99.90
21616;DHT22;10970;48.714;9.584;2023-04-29T15:34:02;16.10;99.90
21616;DHT22;10970;48.714;9.584;2023-04-29T15:36:29;16.20;99.90
21616;DHT22;10970;48.714;9.584;2023-04-29T15:38:56;16.10;99.90
21616;DHT22;10970;48.714;9.584;2023-04-29T15:41:23;16.00;99.90
21616;DHT22;10970;48.714;9.584;2023-04-29T15:43:50;15.80;99.90
21616;DHT22;10970;48.714;9.584;2023-04-29T15:46:20;15.70;99.90
21616;DHT22;10970;48.714;9.584;2023-04-29T15:48:46;15.80;99.90
21616;DHT22;10970;48.714;9.584;2023-04-29T15:51:11;15.90;99.90
21616;DHT22;10970;48.714;9.584;2023-04-29T15:53:41;15.90;99.90
21616;DHT22;10970;48.714;9.584;2023-04-29T15:56:08;15.80;99.90
21616;DHT22;10970;48.714;9.584;2023-04-29T15:58:33;15.70;99.90
21616;DHT22;10970;48.714;9.584;2023-04-29T16:00:59;15.60;99.90
21616;DHT22;10970;48.714;9.584;2023-04-29T16:03:25;15.70;99.90
21616;DHT22;10970;48.714;9.584;2023-04-29T16:05:51;15.70;99.90
21616;DHT22;10970;48.714;9.584;2023-04-29T16:08:16;15.70;99.90
21616;DHT22;10970;48.714;9.584;2023-04-29T16:10:42;15.60;99.90
21616;DHT22;10970;48.714;9.584;2023-04-29T16:13:08;15.60;99.90